TBW weather

Donskoye Airport
Tambov, Tambov Oblast, Russia

Public forecast

Using degrees Celsius for public forecast. Weather courtesy of forecast.io.

METAR (pilot weather report)

Closest report is Voronezh International Airport, 101.9 nm (188.7 km) SW. Retrieved 2019/08/18 21:30 UTC (0 seconds ago):

UUOO 182130Z 30003MPS CAVOK 16/15 Q1015 R30/090070 NOSIG RMK QFE747

TAF (pilot weather forecast)

Forecast is more than 12 hours old.

Closest forecast is Voronezh International Airport, 101.9 nm (188.7 km) SW. Retrieved 2015/08/10 18:12 UTC (4 years ago):

TAF TAF UUOO 101700Z 1018/1106 33003MPS CAVOK